createdAt,value
2017-09-02T00:00:35.325Z,16.7
2017-09-02T00:01:37.102Z,16.5
2017-09-02T00:02:38.761Z,16.6
2017-09-02T00:03:40.461Z,15.4
2017-09-02T00:04:42.123Z,16.1
2017-09-02T00:05:43.821Z,15.7
2017-09-02T00:06:45.508Z,15.3
2017-09-02T00:07:47.195Z,18.0
2017-09-02T00:08:48.902Z,18.0
2017-09-02T00:09:50.555Z,18.9
2017-09-02T00:10:52.250Z,18.3
2017-09-02T00:11:54.409Z,19.0
2017-09-02T00:12:56.102Z,18.7
2017-09-02T00:13:57.937Z,18.5
2017-09-02T00:14:59.812Z,20.2
2017-09-02T00:16:01.464Z,17.9
2017-09-02T00:17:03.178Z,18.2
2017-09-02T00:18:05.120Z,17.7
2017-09-02T00:19:06.785Z,18.7
2017-09-02T00:20:08.438Z,17.4
2017-09-02T00:21:10.614Z,18.6
2017-09-02T00:22:12.354Z,18.2
2017-09-02T00:23:14.244Z,20.5
2017-09-02T00:24:15.964Z,19.0
2017-09-02T00:25:17.652Z,20.4
2017-09-02T00:26:19.343Z,18.9
2017-09-02T00:27:21.212Z,19.3
2017-09-02T00:28:23.137Z,19.6
2017-09-02T00:29:24.830Z,20.3
2017-09-02T00:30:26.623Z,19.0
2017-09-02T00:31:28.279Z,20.2
2017-09-02T00:32:29.949Z,19.4
2017-09-02T00:33:31.621Z,18.5
2017-09-02T00:34:33.497Z,19.3
2017-09-02T00:35:35.151Z,19.9
2017-09-02T00:36:37.086Z,19.9
2017-09-02T00:37:38.747Z,21.4
2017-09-02T00:38:40.420Z,21.1
2017-09-02T00:39:42.081Z,20.5
2017-09-02T00:40:43.976Z,19.4
2017-09-02T00:41:45.657Z,20.2
2017-09-02T00:42:47.572Z,19.7
2017-09-02T00:43:49.230Z,18.9
2017-09-02T00:44:51.160Z,21.5
2017-09-02T00:45:53.081Z,19.1
2017-09-02T00:46:54.905Z,18.8
2017-09-02T00:47:56.549Z,19.3
2017-09-02T00:48:58.222Z,17.7
2017-09-02T00:49:59.881Z,20.0
2017-09-02T00:51:01.863Z,20.3
2017-09-02T00:52:03.549Z,18.6
2017-09-02T00:53:05.241Z,18.7
2017-09-02T00:54:06.908Z,20.6
2017-09-02T00:55:08.543Z,18.3
2017-09-02T00:56:10.417Z,21.4
2017-09-02T00:57:12.056Z,18.5
2017-09-02T00:58:13.730Z,17.8
2017-09-02T00:59:15.404Z,18.2
2017-09-02T01:00:17.115Z,18.3
2017-09-02T01:01:18.767Z,18.8
2017-09-02T01:02:20.952Z,20.1
2017-09-02T01:03:22.620Z,17.8
2017-09-02T01:04:24.365Z,18.4
2017-09-02T01:05:26.271Z,19.0
2017-09-02T01:06:27.946Z,18.9
2017-09-02T01:07:29.647Z,19.3
2017-09-02T01:08:31.469Z,19.6
2017-09-02T01:09:33.212Z,19.1
2017-09-02T01:10:34.873Z,19.8
2017-09-02T01:11:36.544Z,18.7
2017-09-02T01:12:38.222Z,18.8
2017-09-02T01:13:39.906Z,20.1
2017-09-02T01:14:41.572Z,20.3
2017-09-02T01:15:43.238Z,20.4
2017-09-02T01:16:44.900Z,21.5
2017-09-02T01:17:46.797Z,21.1
2017-09-02T01:18:48.456Z,21.3
2017-09-02T01:19:50.146Z,21.5
2017-09-02T01:20:51.821Z,22.6
2017-09-02T01:21:53.468Z,21.2
2017-09-02T01:22:55.141Z,21.4
2017-09-02T01:23:56.813Z,21.9
2017-09-02T01:24:58.491Z,21.2
2017-09-02T01:26:00.219Z,22.7
2017-09-02T01:27:01.904Z,22.2
2017-09-02T01:28:03.553Z,23.9
2017-09-02T01:29:05.220Z,21.3
2017-09-02T01:30:06.876Z,20.8
2017-09-02T01:31:08.532Z,20.8
2017-09-02T01:32:10.323Z,20.0
2017-09-02T01:33:11.976Z,20.0
2017-09-02T01:34:13.667Z,20.8
2017-09-02T01:35:15.344Z,20.9
2017-09-02T01:36:16.996Z,19.5
2017-09-02T01:37:18.676Z,18.8
2017-09-02T01:38:20.350Z,20.0
2017-09-02T01:39:22.136Z,19.0
2017-09-02T01:40:24.108Z,19.8
2017-09-02T01:41:25.815Z,22.4
2017-09-02T01:42:27.460Z,21.0
2017-09-02T01:43:29.348Z,22.6
2017-09-02T01:44:31.269Z,23.0
2017-09-02T01:45:33.026Z,20.7
2017-09-02T01:46:34.729Z,21.8
2017-09-02T01:47:36.391Z,25.7
2017-09-02T01:48:38.129Z,27.2
2017-09-02T01:49:39.747Z,25.7
2017-09-02T01:50:41.435Z,29.4
2017-09-02T01:51:43.064Z,30.0
2017-09-02T01:52:44.732Z,29.9
2017-09-02T01:53:46.409Z,27.1
2017-09-02T01:54:48.297Z,29.2
2017-09-02T01:55:49.965Z,35.1
2017-09-02T01:56:52.123Z,35.4
2017-09-02T01:57:53.778Z,38.0
2017-09-02T01:58:55.453Z,39.6
2017-09-02T01:59:57.389Z,36.7
2017-09-02T02:00:59.217Z,39.3
2017-09-02T02:02:01.169Z,38.5
2017-09-02T02:03:02.825Z,40.2
2017-09-02T02:04:04.468Z,37.7
2017-09-02T02:05:06.147Z,38.4
2017-09-02T02:06:07.811Z,37.3
2017-09-02T02:07:09.468Z,41.4
2017-09-02T02:08:11.134Z,39.0
2017-09-02T02:09:12.792Z,39.9
2017-09-02T02:10:14.460Z,38.5
2017-09-02T02:11:16.110Z,40.6
2017-09-02T02:12:17.778Z,40.3
2017-09-02T02:13:19.453Z,36.1
2017-09-02T02:14:21.115Z,40.1
2017-09-02T02:15:22.778Z,38.9
2017-09-02T02:16:24.436Z,38.7
2017-09-02T02:17:26.114Z,39.7
2017-09-02T02:18:27.765Z,40.2
2017-09-02T02:19:29.440Z,43.2
2017-09-02T02:20:31.171Z,40.9
2017-09-02T02:21:32.885Z,39.0
2017-09-02T02:22:34.551Z,42.4
2017-09-02T02:23:36.213Z,43.9
2017-09-02T02:24:37.874Z,41.3
2017-09-02T02:25:39.550Z,47.3
2017-09-02T02:26:41.234Z,40.6
2017-09-02T02:27:42.915Z,45.1
2017-09-02T02:28:44.760Z,42.2
2017-09-02T02:29:46.422Z,40.7
2017-09-02T02:30:48.268Z,40.3
2017-09-02T02:31:49.994Z,37.0
2017-09-02T02:32:51.727Z,39.7
2017-09-02T02:33:53.859Z,38.2
2017-09-02T02:34:55.485Z,41.9
2017-09-02T02:35:57.152Z,37.3
2017-09-02T02:37:00.915Z,41.7
2017-09-02T02:38:02.833Z,37.2
2017-09-02T02:39:04.499Z,38.1
2017-09-02T02:40:06.653Z,39.1
2017-09-02T02:41:08.325Z,38.4
2017-09-02T02:42:10.141Z,37.2
2017-09-02T02:43:11.806Z,39.6
2017-09-02T02:44:13.468Z,37.1
2017-09-02T02:45:15.127Z,38.5
2017-09-02T02:46:16.783Z,37.8
2017-09-02T02:47:18.446Z,37.0
2017-09-02T02:48:20.105Z,39.3
2017-09-02T02:49:21.848Z,35.9
2017-09-02T02:50:23.493Z,37.6
2017-09-02T02:51:25.163Z,43.5
2017-09-02T02:52:26.899Z,39.0
2017-09-02T02:53:28.537Z,41.1
2017-09-02T02:54:30.192Z,37.1
2017-09-02T02:55:31.846Z,42.1
2017-09-02T02:56:33.554Z,38.9
2017-09-02T02:57:35.234Z,37.9
2017-09-02T02:58:36.922Z,40.1
2017-09-02T02:59:38.571Z,36.3
2017-09-02T03:00:40.325Z,37.6
2017-09-02T03:01:41.992Z,36.0
2017-09-02T03:02:43.758Z,32.4
2017-09-02T03:03:45.441Z,35.4
2017-09-02T03:04:47.123Z,37.4
2017-09-02T03:05:48.814Z,33.4
2017-09-02T03:06:50.605Z,33.8
2017-09-02T03:07:52.269Z,35.2
2017-09-02T03:08:53.935Z,36.7
2017-09-02T03:09:55.649Z,34.6
2017-09-02T03:10:57.306Z,34.5
2017-09-02T03:11:58.968Z,36.6
2017-09-02T03:13:00.683Z,33.6
2017-09-02T03:14:02.350Z,32.4
2017-09-02T03:15:04.012Z,30.9
2017-09-02T03:16:05.692Z,29.2
2017-09-02T03:17:07.383Z,26.2
2017-09-02T03:18:09.357Z,28.6
2017-09-02T03:19:11.328Z,29.1
2017-09-02T03:20:13.312Z,29.0
2017-09-02T03:21:15.479Z,27.0
2017-09-02T03:22:17.349Z,27.2
2017-09-02T03:23:19.025Z,28.6
2017-09-02T03:24:20.705Z,29.8
2017-09-02T03:25:22.417Z,26.0
2017-09-02T03:26:24.210Z,25.2
2017-09-02T03:27:25.882Z,23.6
2017-09-02T03:28:27.544Z,24.5
2017-09-02T03:29:29.205Z,25.7
2017-09-02T03:30:30.879Z,25.6
2017-09-02T03:31:32.533Z,23.3
2017-09-02T03:32:34.202Z,25.8
2017-09-02T03:33:35.949Z,24.0
2017-09-02T03:34:37.624Z,24.2
2017-09-02T03:35:39.301Z,25.2
2017-09-02T03:36:40.969Z,23.9
2017-09-02T03:37:42.688Z,25.7
2017-09-02T03:38:44.328Z,22.9
2017-09-02T03:39:46.004Z,25.3
2017-09-02T03:40:47.681Z,22.1
2017-09-02T03:41:49.383Z,24.9
2017-09-02T03:42:51.101Z,22.8
2017-09-02T03:43:52.928Z,21.4
2017-09-02T03:44:54.701Z,20.0
2017-09-02T03:45:56.370Z,21.6
2017-09-02T03:46:58.011Z,21.5
2017-09-02T03:47:59.644Z,20.5
2017-09-02T03:49:01.284Z,21.3
2017-09-02T03:50:02.932Z,18.5
2017-09-02T03:51:04.565Z,20.9
2017-09-02T03:52:06.196Z,18.6
2017-09-02T03:53:07.838Z,21.6
2017-09-02T03:54:09.470Z,18.0
2017-09-02T03:55:11.105Z,19.1
2017-09-02T03:56:12.737Z,19.1
2017-09-02T03:57:14.375Z,19.8
2017-09-02T03:58:16.009Z,18.3
2017-09-02T03:59:17.643Z,19.4
2017-09-02T04:00:19.276Z,16.9
2017-09-02T04:01:20.903Z,17.9
2017-09-02T04:02:22.541Z,17.7
2017-09-02T04:03:24.190Z,17.5
2017-09-02T04:04:25.840Z,16.9
2017-09-02T04:05:27.545Z,17.1
2017-09-02T04:06:29.234Z,16.4
2017-09-02T04:07:30.991Z,16.2
2017-09-02T04:08:32.756Z,17.1
2017-09-02T04:09:34.419Z,16.8
2017-09-02T04:10:36.204Z,16.7
2017-09-02T04:11:37.884Z,17.2
2017-09-02T04:12:39.571Z,16.3
2017-09-02T04:13:41.276Z,15.8
2017-09-02T04:14:42.972Z,15.1
2017-09-02T04:15:44.739Z,15.7
2017-09-02T04:16:46.468Z,14.5
2017-09-02T04:17:48.181Z,16.4
2017-09-02T04:18:49.854Z,14.5
2017-09-02T04:19:51.472Z,15.4
2017-09-02T04:20:53.105Z,14.1
2017-09-02T04:21:54.792Z,14.4
2017-09-02T04:22:56.494Z,13.2
2017-09-02T04:23:58.157Z,14.7
2017-09-02T04:24:59.890Z,13.8
2017-09-02T04:26:01.569Z,13.2
2017-09-02T04:27:03.239Z,14.0
2017-09-02T04:28:04.909Z,15.1
2017-09-02T04:29:06.592Z,15.0
2017-09-02T04:30:08.259Z,15.0
2017-09-02T04:31:09.936Z,16.3
2017-09-02T04:32:11.623Z,16.3
2017-09-02T04:33:13.358Z,15.9
2017-09-02T04:34:15.030Z,15.8
2017-09-02T04:35:16.710Z,15.1
2017-09-02T04:36:18.459Z,15.6
2017-09-02T04:37:20.128Z,17.3
2017-09-02T04:38:21.771Z,15.6
2017-09-02T04:39:23.449Z,15.3
2017-09-02T04:40:25.130Z,15.5
2017-09-02T04:41:26.795Z,14.9
2017-09-02T04:42:28.533Z,14.2
2017-09-02T04:43:30.473Z,14.6
2017-09-02T04:44:32.114Z,15.5
2017-09-02T04:45:33.862Z,15.4
2017-09-02T04:46:35.504Z,15.3
2017-09-02T04:47:37.168Z,15.1
2017-09-02T04:48:38.903Z,16.3
2017-09-02T04:49:40.571Z,16.3
2017-09-02T04:50:42.301Z,16.2
2017-09-02T04:51:43.959Z,15.8
2017-09-02T04:52:45.627Z,16.4
2017-09-02T04:53:47.309Z,15.7
2017-09-02T04:54:48.990Z,16.7
2017-09-02T04:55:50.651Z,16.6
2017-09-02T04:56:52.326Z,16.8
2017-09-02T04:57:54.003Z,16.5
2017-09-02T04:58:55.678Z,16.4
2017-09-02T04:59:57.381Z,15.5
2017-09-02T05:00:59.138Z,15.4
2017-09-02T05:02:00.842Z,15.3
2017-09-02T05:03:02.569Z,16.2
2017-09-02T05:04:04.247Z,15.8
2017-09-02T05:05:05.912Z,15.7
2017-09-02T05:06:07.598Z,15.6
2017-09-02T05:07:09.291Z,15.7
2017-09-02T05:08:10.960Z,16.8
2017-09-02T05:09:12.638Z,15.9
2017-09-02T05:10:14.299Z,15.3
2017-09-02T05:11:15.976Z,14.7
2017-09-02T05:12:17.641Z,16.0
2017-09-02T05:13:19.326Z,15.5
2017-09-02T05:14:20.992Z,14.9
2017-09-02T05:15:22.640Z,15.2
2017-09-02T05:16:24.352Z,15.0
2017-09-02T05:17:26.029Z,14.7
2017-09-02T05:18:27.690Z,16.2
2017-09-02T05:19:29.440Z,15.2
2017-09-02T05:20:31.100Z,13.6
2017-09-02T05:21:32.787Z,15.1
2017-09-02T05:22:34.530Z,15.1
2017-09-02T05:23:36.189Z,15.4
2017-09-02T05:24:37.858Z,16.3
2017-09-02T05:25:39.596Z,15.7
2017-09-02T05:26:41.289Z,15.5
2017-09-02T05:27:42.963Z,15.8
2017-09-02T05:28:44.600Z,14.3
2017-09-02T05:29:46.268Z,15.1
2017-09-02T05:30:47.960Z,14.6
2017-09-02T05:31:49.692Z,16.3
2017-09-02T05:32:51.411Z,15.5
2017-09-02T05:33:53.125Z,15.5
2017-09-02T05:34:54.801Z,16.2
2017-09-02T05:35:56.482Z,15.5
2017-09-02T05:36:58.202Z,16.9
2017-09-02T05:37:59.931Z,15.4
2017-09-02T05:39:01.604Z,15.6
2017-09-02T05:40:03.278Z,15.7
2017-09-02T05:41:04.945Z,15.5
2017-09-02T05:42:06.627Z,16.1
2017-09-02T05:43:08.301Z,16.9
2017-09-02T05:44:09.959Z,16.5
2017-09-02T05:45:11.658Z,15.8
2017-09-02T05:46:13.323Z,15.9
2017-09-02T05:47:15.002Z,16.5
2017-09-02T05:48:16.675Z,16.2
2017-09-02T05:49:18.333Z,17.3
2017-09-02T05:50:19.997Z,16.8
2017-09-02T05:51:21.656Z,16.9
2017-09-02T05:52:23.374Z,17.7
2017-09-02T05:53:25.068Z,16.5
2017-09-02T05:54:26.748Z,17.6
2017-09-02T05:55:28.422Z,17.4
2017-09-02T05:56:30.091Z,17.6
2017-09-02T05:57:31.820Z,18.8
2017-09-02T05:58:33.524Z,19.0
2017-09-02T05:59:35.238Z,20.4
2017-09-02T06:00:36.923Z,19.5
2017-09-02T06:01:38.712Z,20.0
2017-09-02T06:02:40.400Z,20.2
2017-09-02T06:03:42.089Z,20.6
2017-09-02T06:04:43.764Z,20.5
2017-09-02T06:05:45.418Z,22.3
2017-09-02T06:06:47.103Z,21.7
2017-09-02T06:07:48.766Z,21.9
2017-09-02T06:08:50.493Z,21.2
2017-09-02T06:09:52.172Z,21.8
2017-09-02T06:10:53.846Z,21.9
2017-09-02T06:11:55.538Z,21.7
2017-09-02T06:12:57.233Z,23.2
2017-09-02T06:13:58.920Z,24.0
2017-09-02T06:15:00.569Z,22.1
2017-09-02T06:16:02.227Z,23.4
2017-09-02T06:17:03.914Z,22.7
2017-09-02T06:18:05.645Z,25.4
2017-09-02T06:19:07.327Z,23.7
2017-09-02T06:20:09.055Z,23.2
2017-09-02T06:21:10.769Z,24.7
2017-09-02T06:22:12.454Z,25.5
2017-09-02T06:23:14.139Z,24.3
2017-09-02T06:24:15.826Z,24.6
2017-09-02T06:25:17.542Z,24.9
2017-09-02T06:26:19.268Z,24.9
2017-09-02T06:27:21.019Z,24.7
2017-09-02T06:28:22.691Z,25.3
2017-09-02T06:29:24.363Z,26.0
2017-09-02T06:30:26.047Z,24.4
2017-09-02T06:31:27.823Z,25.1
2017-09-02T06:32:29.492Z,25.3
2017-09-02T06:33:31.230Z,26.0
2017-09-02T06:34:32.922Z,27.4
2017-09-02T06:35:34.710Z,24.9
2017-09-02T06:36:36.356Z,27.5
2017-09-02T06:37:38.151Z,24.8
2017-09-02T06:38:39.835Z,24.8
2017-09-02T06:39:41.529Z,23.9
2017-09-02T06:40:43.253Z,24.3
2017-09-02T06:41:44.929Z,24.8
2017-09-02T06:42:46.592Z,23.9
2017-09-02T06:43:48.290Z,24.5
2017-09-02T06:44:49.944Z,24.4
2017-09-02T06:45:51.686Z,23.7
2017-09-02T06:46:53.344Z,24.1
2017-09-02T06:47:55.017Z,24.6
2017-09-02T06:48:56.687Z,24.8
2017-09-02T06:49:58.365Z,26.2
2017-09-02T06:51:00.037Z,25.5
2017-09-02T06:52:01.772Z,25.5
2017-09-02T06:53:03.552Z,24.9
2017-09-02T06:54:05.243Z,24.3
2017-09-02T06:55:06.928Z,24.9
2017-09-02T06:56:08.663Z,24.1
2017-09-02T06:57:10.340Z,25.0
2017-09-02T06:58:12.155Z,26.1
2017-09-02T06:59:13.813Z,25.3
2017-09-02T07:00:15.578Z,24.6
2017-09-02T07:01:17.268Z,23.9
2017-09-02T07:02:19.050Z,24.7
2017-09-02T07:03:20.742Z,24.9
2017-09-02T07:04:22.420Z,24.0
2017-09-02T07:05:24.193Z,25.5
2017-09-02T07:06:25.942Z,24.9
2017-09-02T07:07:27.629Z,27.4
2017-09-02T07:08:29.303Z,27.0
2017-09-02T07:09:30.984Z,24.1
2017-09-02T07:10:32.780Z,24.4
2017-09-02T07:11:34.446Z,23.9
2017-09-02T07:12:36.128Z,23.4
2017-09-02T07:13:37.834Z,24.0
2017-09-02T07:14:39.494Z,24.6
2017-09-02T07:15:41.197Z,26.5
2017-09-02T07:16:42.983Z,24.6
2017-09-02T07:17:44.997Z,25.3
2017-09-02T07:18:46.715Z,24.7
2017-09-02T07:19:48.520Z,25.5
2017-09-02T07:20:50.287Z,25.0
2017-09-02T07:21:52.176Z,25.2
2017-09-02T07:22:53.890Z,24.2
2017-09-02T07:23:55.564Z,26.2
2017-09-02T07:24:57.259Z,25.3
2017-09-02T07:25:58.963Z,25.5
2017-09-02T07:27:00.717Z,24.9
2017-09-02T07:28:02.490Z,26.3
2017-09-02T07:29:04.161Z,25.6
2017-09-02T07:30:06.347Z,24.2
2017-09-02T07:31:08.058Z,25.5
2017-09-02T07:32:09.849Z,25.6
2017-09-02T07:33:12.152Z,25.2
2017-09-02T07:34:13.896Z,27.3
2017-09-02T07:35:16.072Z,25.7
2017-09-02T07:36:19.042Z,27.3
2017-09-02T07:37:20.863Z,25.6
2017-09-02T07:38:22.562Z,25.8
2017-09-02T07:39:24.318Z,26.2
2017-09-02T07:40:26.012Z,27.1
2017-09-02T07:41:27.736Z,25.8
2017-09-02T07:42:29.795Z,25.5
2017-09-02T07:43:31.553Z,26.4
2017-09-02T07:44:33.306Z,26.7
2017-09-02T07:45:34.965Z,28.1
2017-09-02T07:46:36.687Z,25.8
2017-09-02T07:47:38.362Z,28.0
2017-09-02T07:48:40.068Z,28.1
2017-09-02T07:49:41.863Z,26.0
2017-09-02T07:50:43.551Z,25.6
2017-09-02T07:51:46.028Z,26.0
2017-09-02T07:52:47.679Z,25.5
2017-09-02T07:53:52.612Z,23.7
2017-09-02T07:54:55.381Z,26.3
2017-09-02T07:55:57.320Z,24.7
2017-09-02T07:56:59.047Z,24.2
2017-09-02T07:58:00.788Z,23.7
2017-09-02T07:59:04.101Z,23.8
2017-09-02T08:00:05.875Z,23.0
2017-09-02T08:01:07.551Z,22.5
2017-09-02T08:02:09.231Z,22.3
2017-09-02T08:03:10.941Z,22.6
2017-09-02T08:04:12.768Z,23.2
2017-09-02T08:05:14.484Z,23.0
2017-09-02T08:06:17.826Z,23.1
2017-09-02T08:07:19.527Z,24.7
2017-09-02T08:08:21.202Z,23.2
2017-09-02T08:09:22.904Z,22.7
2017-09-02T08:10:24.620Z,22.7
2017-09-02T08:11:26.302Z,22.8
2017-09-02T08:12:28.033Z,22.7
2017-09-02T08:13:29.735Z,22.9
2017-09-02T08:14:31.406Z,23.2
2017-09-02T08:15:33.098Z,24.0
2017-09-02T08:16:34.776Z,23.6
2017-09-02T08:17:36.478Z,23.0
2017-09-02T08:18:38.190Z,23.8
2017-09-02T08:19:39.927Z,24.3
2017-09-02T08:20:41.614Z,21.5
2017-09-02T08:21:43.264Z,21.8
2017-09-02T08:22:45.011Z,21.7
2017-09-02T08:23:46.709Z,21.8
2017-09-02T08:24:48.364Z,21.2
2017-09-02T08:25:50.043Z,23.6
2017-09-02T08:26:51.715Z,20.7
2017-09-02T08:27:53.382Z,21.8
2017-09-02T08:28:55.081Z,21.7
2017-09-02T08:29:56.733Z,22.4
2017-09-02T08:30:58.432Z,21.2
2017-09-02T08:32:00.087Z,21.9
2017-09-02T08:33:01.771Z,20.8
2017-09-02T08:34:03.464Z,21.4
2017-09-02T08:35:05.180Z,21.7
2017-09-02T08:36:06.898Z,22.8
2017-09-02T08:37:08.568Z,22.8
2017-09-02T08:38:10.251Z,21.3
2017-09-02T08:39:11.953Z,21.6
2017-09-02T08:40:13.665Z,20.5
2017-09-02T08:41:15.344Z,21.3
2017-09-02T08:42:16.998Z,21.6
2017-09-02T08:43:18.669Z,20.5
2017-09-02T08:44:20.367Z,20.8
2017-09-02T08:45:22.086Z,21.0
2017-09-02T08:46:23.751Z,19.7
2017-09-02T08:47:25.472Z,20.0
2017-09-02T08:48:27.206Z,19.8
2017-09-02T08:49:28.900Z,19.7
2017-09-02T08:50:30.585Z,20.3
2017-09-02T08:51:32.259Z,21.3
2017-09-02T08:52:34.574Z,22.4
2017-09-02T08:53:36.690Z,21.6
2017-09-02T08:54:38.449Z,21.2
2017-09-02T08:55:40.093Z,20.1
2017-09-02T08:56:44.081Z,20.1
2017-09-02T08:57:45.795Z,20.4
2017-09-02T08:58:47.522Z,19.8
2017-09-02T08:59:49.200Z,21.0
2017-09-02T09:00:50.884Z,20.8
2017-09-02T09:01:53.060Z,20.4
2017-09-02T09:02:55.181Z,20.6
2017-09-02T09:03:56.869Z,19.6
2017-09-02T09:04:58.565Z,19.8
2017-09-02T09:06:00.272Z,20.4
2017-09-02T09:07:02.056Z,20.5
2017-09-02T09:08:03.711Z,21.3
2017-09-02T09:09:05.557Z,22.6
2017-09-02T09:10:07.214Z,20.9
2017-09-02T09:11:08.886Z,22.5
2017-09-02T09:12:10.695Z,21.9
2017-09-02T09:13:13.341Z,21.6
2017-09-02T09:14:15.128Z,21.5
2017-09-02T09:15:17.445Z,20.6
2017-09-02T09:16:19.146Z,21.5
2017-09-02T09:17:20.824Z,20.8
2017-09-02T09:18:22.579Z,21.3
2017-09-02T09:19:24.286Z,21.0
2017-09-02T09:20:25.969Z,20.6
2017-09-02T09:21:27.628Z,20.9
2017-09-02T09:22:29.330Z,20.0
2017-09-02T09:23:32.155Z,19.7
2017-09-02T09:24:33.832Z,19.1
2017-09-02T09:25:35.501Z,20.5
2017-09-02T09:26:37.189Z,19.7
2017-09-02T09:27:38.958Z,20.5
2017-09-02T09:28:40.814Z,20.8
2017-09-02T09:29:42.512Z,21.7
2017-09-02T09:30:44.287Z,19.2
2017-09-02T09:31:48.025Z,20.9
2017-09-02T09:32:49.564Z,20.0
2017-09-02T09:33:51.267Z,18.9
2017-09-02T09:34:52.964Z,19.6
2017-09-02T09:35:54.787Z,19.9
2017-09-02T09:36:56.486Z,19.4
2017-09-02T09:37:58.198Z,19.7
2017-09-02T09:38:59.858Z,19.1
2017-09-02T09:40:01.826Z,17.9
2017-09-02T09:41:03.695Z,17.9
2017-09-02T09:42:05.345Z,17.5
2017-09-02T09:43:07.428Z,17.8
2017-09-02T09:44:09.138Z,17.4
2017-09-02T09:45:10.819Z,16.9
2017-09-02T09:46:12.581Z,17.3
2017-09-02T09:47:14.371Z,18.0
2017-09-02T09:48:16.065Z,18.2
2017-09-02T09:49:17.785Z,17.1
2017-09-02T09:50:19.552Z,17.6
2017-09-02T09:51:21.589Z,17.0
2017-09-02T09:52:23.514Z,17.2
2017-09-02T09:53:25.288Z,16.6
2017-09-02T09:54:27.136Z,16.5
2017-09-02T09:55:28.857Z,19.0
2017-09-02T09:56:30.572Z,15.6
2017-09-02T09:57:32.672Z,16.5
2017-09-02T09:58:35.328Z,16.0
2017-09-02T09:59:38.505Z,16.0
2017-09-02T10:00:40.257Z,15.6
2017-09-02T10:01:44.311Z,15.5
2017-09-02T10:02:51.939Z,14.3
2017-09-02T10:03:53.522Z,15.3
2017-09-02T10:04:56.652Z,15.3
2017-09-02T10:05:58.360Z,16.5
2017-09-02T10:07:00.100Z,15.5
2017-09-02T10:08:01.853Z,15.4
2017-09-02T10:09:03.772Z,15.0
2017-09-02T10:10:05.521Z,15.2
2017-09-02T10:11:07.309Z,14.3
2017-09-02T10:12:09.440Z,14.4
2017-09-02T10:13:11.373Z,14.3
2017-09-02T10:14:14.585Z,15.6
2017-09-02T10:15:16.403Z,14.0
2017-09-02T10:16:18.109Z,13.2
2017-09-02T10:17:19.865Z,11.7
2017-09-02T10:18:21.654Z,12.4
2017-09-02T10:19:23.393Z,11.9
2017-09-02T10:20:25.092Z,12.2
2017-09-02T10:21:26.859Z,12.0
2017-09-02T10:22:28.921Z,11.8
2017-09-02T10:23:30.853Z,11.8
2017-09-02T10:24:33.014Z,11.3
2017-09-02T10:25:34.725Z,11.5
2017-09-02T10:26:36.617Z,10.2
2017-09-02T10:27:38.311Z,9.2
2017-09-02T10:28:40.275Z,9.9
2017-09-02T10:29:42.063Z,12.7
2017-09-02T10:30:43.798Z,10.8
2017-09-02T10:31:45.549Z,12.1
2017-09-02T10:32:47.334Z,12.1
2017-09-02T10:33:49.310Z,12.0
2017-09-02T10:34:51.447Z,12.1
2017-09-02T10:35:53.539Z,11.7
2017-09-02T10:36:55.318Z,13.3
2017-09-02T10:37:57.627Z,12.3
2017-09-02T10:38:59.596Z,11.7
2017-09-02T10:40:01.396Z,11.2
2017-09-02T10:41:03.133Z,12.0
2017-09-02T10:42:05.151Z,11.7
2017-09-02T10:43:07.012Z,13.2
2017-09-02T10:44:08.814Z,13.7
2017-09-02T10:45:10.595Z,12.1
2017-09-02T10:46:12.301Z,14.1
2017-09-02T10:47:14.018Z,15.7
2017-09-02T10:48:15.736Z,15.8
2017-09-02T10:49:17.412Z,15.4
2017-09-02T10:50:19.135Z,15.9
2017-09-02T10:51:20.889Z,14.5
2017-09-02T10:52:22.602Z,14.5
2017-09-02T10:53:24.388Z,14.7
2017-09-02T10:54:26.171Z,13.8
2017-09-02T10:55:27.942Z,13.5
2017-09-02T10:56:29.642Z,12.5
2017-09-02T10:57:31.356Z,11.6
2017-09-02T10:58:33.490Z,10.7
2017-09-02T10:59:35.201Z,9.8
2017-09-02T11:00:36.875Z,10.4
2017-09-02T11:01:38.731Z,10.1
2017-09-02T11:02:40.638Z,12.0
2017-09-02T11:03:42.382Z,11.8
2017-09-02T11:04:44.444Z,13.0
2017-09-02T11:05:46.580Z,12.0
2017-09-02T11:06:48.387Z,11.9
2017-09-02T11:07:50.070Z,14.6
2017-09-02T11:08:51.893Z,10.7
2017-09-02T11:09:53.625Z,10.0
2017-09-02T11:10:55.368Z,11.3
2017-09-02T11:11:57.062Z,11.8
2017-09-02T11:12:58.781Z,12.0
2017-09-02T11:14:00.729Z,11.7
2017-09-02T11:15:02.455Z,12.4
2017-09-02T11:16:04.164Z,11.0
2017-09-02T11:17:05.908Z,11.5
2017-09-02T11:18:07.590Z,12.0
2017-09-02T11:19:09.786Z,12.0
2017-09-02T11:20:11.635Z,12.0
2017-09-02T11:21:13.494Z,12.7
2017-09-02T11:22:15.325Z,13.7
2017-09-02T11:23:17.105Z,14.5
2017-09-02T11:24:18.809Z,14.0
2017-09-02T11:25:26.436Z,15.6
2017-09-02T11:26:28.349Z,15.5
2017-09-02T11:27:30.333Z,14.4
2017-09-02T11:28:32.121Z,14.9
2017-09-02T11:29:34.183Z,14.0
2017-09-02T11:30:36.079Z,13.6
2017-09-02T11:31:37.930Z,13.8
2017-09-02T11:32:39.797Z,14.6
2017-09-02T11:33:41.999Z,12.3
2017-09-02T11:34:43.845Z,13.1
2017-09-02T11:35:45.650Z,14.0
2017-09-02T11:36:47.514Z,14.2
2017-09-02T11:37:49.315Z,13.5
2017-09-02T11:38:51.085Z,13.5
2017-09-02T11:39:52.940Z,13.9
2017-09-02T11:40:54.804Z,13.4
2017-09-02T11:41:56.715Z,12.8
2017-09-02T11:42:58.509Z,13.2
2017-09-02T11:44:00.377Z,13.7
2017-09-02T11:45:02.386Z,12.2
2017-09-02T11:46:04.376Z,12.2
2017-09-02T11:47:06.120Z,11.7
2017-09-02T11:48:07.922Z,12.3
2017-09-02T11:49:09.661Z,12.0
2017-09-02T11:50:11.569Z,12.2
2017-09-02T11:51:13.402Z,11.9
2017-09-02T11:52:15.213Z,11.7
2017-09-02T11:53:17.082Z,11.2
2017-09-02T11:54:19.216Z,11.2
2017-09-02T11:55:21.388Z,10.5
2017-09-02T11:56:23.173Z,11.5
2017-09-02T11:57:25.402Z,10.6
2017-09-02T11:58:27.589Z,10.8
2017-09-02T11:59:29.372Z,9.6
2017-09-02T12:00:31.280Z,10.1
2017-09-02T12:01:33.198Z,9.9
2017-09-02T12:02:35.481Z,10.3
2017-09-02T12:03:37.191Z,11.0
2017-09-02T12:04:39.383Z,9.6
2017-09-02T12:05:41.451Z,9.5
2017-09-02T12:06:43.332Z,10.3
2017-09-02T12:07:45.208Z,9.7
2017-09-02T12:08:47.139Z,9.3
2017-09-02T12:09:49.356Z,10.6
2017-09-02T12:10:51.693Z,9.2
2017-09-02T12:11:53.823Z,9.2
2017-09-02T12:12:56.847Z,9.7
2017-09-02T12:13:59.136Z,8.8
2017-09-02T12:15:02.885Z,9.5
2017-09-02T12:16:04.758Z,9.4
2017-09-02T12:17:06.648Z,11.2
2017-09-02T12:18:09.239Z,5.3
2017-09-02T12:19:11.033Z,3.2
2017-09-02T12:20:12.981Z,3.4
2017-09-02T12:21:14.688Z,2.8
2017-09-02T12:22:16.437Z,2.5
2017-09-02T12:23:18.356Z,2.3
2017-09-02T12:24:21.932Z,4.7
2017-09-02T12:25:23.656Z,3.4
2017-09-02T12:26:25.428Z,3.0
2017-09-02T12:27:27.162Z,3.0
2017-09-02T12:28:29.016Z,3.7
2017-09-02T12:29:30.812Z,4.1
2017-09-02T12:30:32.829Z,4.1
2017-09-02T12:31:34.772Z,4.3
2017-09-02T12:32:36.512Z,4.5
2017-09-02T12:33:38.502Z,4.8
2017-09-02T12:34:40.323Z,5.1
2017-09-02T12:35:42.147Z,4.2
2017-09-02T12:36:43.908Z,3.9
2017-09-02T12:37:45.745Z,4.0
2017-09-02T12:38:47.908Z,3.3
2017-09-02T12:39:51.634Z,3.1
2017-09-02T12:40:53.630Z,3.4
2017-09-02T12:41:55.438Z,2.2
2017-09-02T12:42:57.363Z,2.0
2017-09-02T12:43:59.172Z,2.4
2017-09-02T12:45:01.074Z,2.8
2017-09-02T12:46:02.835Z,2.6
2017-09-02T12:47:04.903Z,4.6
2017-09-02T12:48:06.761Z,3.1
2017-09-02T12:49:08.504Z,2.0
2017-09-02T12:50:10.585Z,3.2
2017-09-02T12:51:12.374Z,2.2
2017-09-02T12:52:14.202Z,2.7
2017-09-02T12:53:15.946Z,2.3
2017-09-02T12:54:17.693Z,2.4
2017-09-02T12:55:19.505Z,2.1
2017-09-02T12:56:21.294Z,2.1
2017-09-02T12:57:24.643Z,2.9
2017-09-02T12:58:27.085Z,4.8
2017-09-02T12:59:29.397Z,3.4
2017-09-02T13:00:31.253Z,3.5
2017-09-02T13:01:33.077Z,3.9
2017-09-02T13:02:34.874Z,5.3
2017-09-02T13:03:36.691Z,3.7
2017-09-02T13:04:38.510Z,3.8
2017-09-02T13:05:40.764Z,5.0
2017-09-02T13:06:42.650Z,4.3
2017-09-02T13:07:44.738Z,4.4
2017-09-02T13:08:47.197Z,4.8
2017-09-02T13:09:48.961Z,4.6
2017-09-02T13:10:50.645Z,4.3
2017-09-02T13:11:52.424Z,4.1
2017-09-02T13:12:54.135Z,5.8
2017-09-02T13:13:55.878Z,4.6
2017-09-02T13:14:57.656Z,3.9
2017-09-02T13:15:59.426Z,4.7
2017-09-02T13:17:01.139Z,4.4
2017-09-02T13:18:02.823Z,5.2
2017-09-02T13:19:04.586Z,4.9
2017-09-02T13:20:06.328Z,3.9
2017-09-02T13:21:08.032Z,4.0
2017-09-02T13:22:09.711Z,3.8
2017-09-02T13:23:11.517Z,7.1
2017-09-02T13:24:13.220Z,5.1
2017-09-02T13:25:14.943Z,13.0
2017-09-02T13:26:16.703Z,3.9
2017-09-02T13:27:18.426Z,4.0
2017-09-02T13:28:20.123Z,5.8
2017-09-02T13:29:21.872Z,5.4
2017-09-02T13:30:23.558Z,4.4
2017-09-02T13:31:25.254Z,7.2
2017-09-02T13:32:26.957Z,5.3
2017-09-02T13:33:28.704Z,5.0
2017-09-02T13:34:30.382Z,6.9
2017-09-02T13:35:32.113Z,5.1
2017-09-02T13:36:33.860Z,4.3
2017-09-02T13:37:35.630Z,4.5
2017-09-02T13:38:37.369Z,4.7
2017-09-02T13:39:39.191Z,5.8
2017-09-02T13:40:40.879Z,7.7
2017-09-02T13:41:42.661Z,6.8
2017-09-02T13:42:44.363Z,8.5
2017-09-02T13:43:46.084Z,6.6
2017-09-02T13:44:47.781Z,6.0
2017-09-02T13:45:49.451Z,6.5